Time;durP1;ratioP1;P1;durP2;ratioP2;P2;SDS_P1;SDS_P2;PMS_P1;PMS_P2;Temp;Humidity;BMP_temperature;BMP_pressure;BME280_temperature;BME280_humidity;BME280_pressure;Samples;Min_cycle;Max_cycle;Signal;HPM_P1;HPM_P2
2023/03/09 00:00:10;;;;;;;0.10;0.10;;;;;;;;;;6226699;23;20024;-76
2023/03/09 00:02:57;;;;;;;0.20;0.20;;;;;;;;;;6225625;23;20039;-77
2023/03/09 00:05:44;;;;;;;0.40;0.30;;;;;;;;;;6204392;23;20012;-76
2023/03/09 00:08:29;;;;;;;0.20;0.20;;;;;;;;;;6204405;23;20341;-76
2023/03/09 00:11:19;;;;;;;0.82;0.50;;;;;;;;;;6225883;23;20012;-77
2023/03/09 00:14:04;;;;;;;1.63;0.80;;;;;;;;;;6204937;23;20008;-78
2023/03/09 00:16:50;;;;;;;2.22;1.23;;;;;;;;;;6205858;23;20012;-78
2023/03/09 00:19:36;;;;;;;2.13;1.33;;;;;;;;;;6227044;23;20016;-78
2023/03/09 00:22:23;;;;;;;2.10;1.35;;;;;;;;;;6204366;23;20779;-76
2023/03/09 00:25:13;;;;;;;1.80;0.93;;;;;;;;;;6202947;23;20046;-77
2023/03/09 00:27:59;;;;;;;2.20;1.30;;;;;;;;;;6204770;23;20023;-76
2023/03/09 00:30:45;;;;;;;1.63;0.95;;;;;;;;;;6202964;23;20012;-76
2023/03/09 00:33:30;;;;;;;1.50;0.90;;;;;;;;;;6225580;23;20018;-77
2023/03/09 00:36:16;;;;;;;2.17;1.48;;;;;;;;;;6226441;23;20418;-76
2023/03/09 00:39:03;;;;;;;0.85;0.40;;;;;;;;;;6203531;23;20027;-76
2023/03/09 00:41:48;;;;;;;0.65;0.40;;;;;;;;;;6225195;23;20008;-76
2023/03/09 00:44:34;;;;;;;0.80;0.43;;;;;;;;;;6203184;23;20035;-76
2023/03/09 00:47:20;;;;;;;0.75;0.47;;;;;;;;;;6226684;23;20012;-77
2023/03/09 00:50:07;;;;;;;0.35;0.30;;;;;;;;;;6201291;23;20047;-78
2023/03/09 00:52:53;;;;;;;0.90;0.45;;;;;;;;;;6203821;23;20325;-77
2023/03/09 00:55:38;;;;;;;0.20;0.20;;;;;;;;;;6202867;23;20039;-77
2023/03/09 00:58:27;;;;;;;0.20;0.20;;;;;;;;;;6203621;23;20016;-80
2023/03/09 01:01:14;;;;;;;0.10;0.10;;;;;;;;;;6202077;23;20013;-78
2023/03/09 01:04:00;;;;;;;0.10;0.10;;;;;;;;;;6203725;23;20058;-77
2023/03/09 01:06:46;;;;;;;0.20;0.20;;;;;;;;;;6203463;23;20059;-78
2023/03/09 01:09:32;;;;;;;0.10;0.10;;;;;;;;;;6203366;23;20020;-78
2023/03/09 01:12:19;;;;;;;0.20;0.20;;;;;;;;;;6203156;23;20008;-76
2023/03/09 01:15:06;;;;;;;0.10;0.10;;;;;;;;;;6203521;23;20214;-76
2023/03/09 01:17:52;;;;;;;0.10;0.10;;;;;;;;;;6203294;23;20237;-77
2023/03/09 01:20:38;;;;;;;0.20;0.20;;;;;;;;;;6225236;23;20339;-77
2023/03/09 01:23:24;;;;;;;0.10;0.10;;;;;;;;;;6203139;23;20023;-76
2023/03/09 01:26:09;;;;;;;0.10;0.10;;;;;;;;;;6203138;23;20015;-76
2023/03/09 01:28:56;;;;;;;0.10;0.10;;;;;;;;;;6225752;23;20023;-77
2023/03/09 01:31:41;;;;;;;0.10;0.10;;;;;;;;;;6225555;23;20016;-77
2023/03/09 01:34:27;;;;;;;0.10;0.10;;;;;;;;;;6225411;23;20015;-76
2023/03/09 01:37:15;;;;;;;0.10;0.10;;;;;;;;;;6228515;23;20020;-77
2023/03/09 01:40:04;;;;;;;0.20;0.20;;;;;;;;;;6221521;23;20023;-76
2023/03/09 01:42:54;;;;;;;0.10;0.10;;;;;;;;;;6225261;23;20453;-76
2023/03/09 01:45:39;;;;;;;0.10;0.10;;;;;;;;;;6226132;23;20331;-77
2023/03/09 01:48:25;;;;;;;0.20;0.20;;;;;;;;;;6224761;23;20047;-77
2023/03/09 01:51:11;;;;;;;0.10;0.10;;;;;;;;;;6202158;23;20016;-76
2023/03/09 01:53:58;;;;;;;0.10;0.10;;;;;;;;;;6225064;23;20107;-76
2023/03/09 01:56:44;;;;;;;0.13;0.13;;;;;;;;;;6225226;23;20282;-76
2023/03/09 01:59:31;;;;;;;0.20;0.20;;;;;;;;;;6225313;23;20065;-76
2023/03/09 02:02:17;;;;;;;0.20;0.20;;;;;;;;;;6202731;23;20513;-76
2023/03/09 02:05:05;;;;;;;0.10;0.10;;;;;;;;;;6204163;23;20107;-76
2023/03/09 02:07:52;;;;;;;0.10;0.10;;;;;;;;;;6204470;23;20058;-76
2023/03/09 02:10:43;;;;;;;0.10;0.10;;;;;;;;;;6204622;23;20024;-76
2023/03/09 02:13:31;;;;;;;0.10;0.10;;;;;;;;;;6205107;23;20047;-76
2023/03/09 02:16:17;;;;;;;0.10;0.10;;;;;;;;;;6205147;23;20016;-76
2023/03/09 02:19:05;;;;;;;0.10;0.10;;;;;;;;;;6205564;23;20019;-77
2023/03/09 02:21:52;;;;;;;0.20;0.20;;;;;;;;;;6226357;23;20019;-77
2023/03/09 02:24:44;;;;;;;0.20;0.20;;;;;;;;;;6204999;23;20338;-76
2023/03/09 02:27:30;;;;;;;0.10;0.10;;;;;;;;;;6226256;23;20024;-76
2023/03/09 02:30:16;;;;;;;0.10;0.10;;;;;;;;;;6226099;23;20011;-77
2023/03/09 02:33:07;;;;;;;0.20;0.20;;;;;;;;;;6203971;23;20027;-76
2023/03/09 02:35:57;;;;;;;0.10;0.10;;;;;;;;;;6205471;23;20012;-76
2023/03/09 02:38:43;;;;;;;0.93;0.60;;;;;;;;;;6204132;23;20348;-76
2023/03/09 02:41:29;;;;;;;0.20;0.20;;;;;;;;;;6206676;23;20023;-76
2023/03/09 02:44:15;;;;;;;0.20;0.20;;;;;;;;;;6203707;23;20065;-76
2023/03/09 02:47:01;;;;;;;1.08;0.55;;;;;;;;;;6206173;23;20315;-76
2023/03/09 02:49:47;;;;;;;0.20;0.20;;;;;;;;;;6204276;23;20043;-76
2023/03/09 02:52:33;;;;;;;0.20;0.20;;;;;;;;;;6204069;23;20077;-76
2023/03/09 02:55:19;;;;;;;0.20;0.20;;;;;;;;;;6204597;23;20016;-76
2023/03/09 02:58:06;;;;;;;0.20;0.20;;;;;;;;;;6203425;23;20607;-76
2023/03/09 03:00:52;;;;;;;0.20;0.20;;;;;;;;;;6204030;23;20315;-76
2023/03/09 03:03:38;;;;;;;0.20;0.20;;;;;;;;;;6203258;23;20065;-77
2023/03/09 03:06:23;;;;;;;0.20;0.20;;;;;;;;;;6226431;23;20024;-76
2023/03/09 03:09:09;;;;;;;0.13;0.13;;;;;;;;;;6203477;23;20059;-76
2023/03/09 03:11:55;;;;;;;0.10;0.10;;;;;;;;;;6204415;23;20012;-76
2023/03/09 03:14:41;;;;;;;0.20;0.20;;;;;;;;;;6204394;23;20012;-77
2023/03/09 03:17:28;;;;;;;0.10;0.10;;;;;;;;;;6204029;23;20020;-77
2023/03/09 03:20:15;;;;;;;0.65;0.40;;;;;;;;;;6203440;23;20023;-76
2023/03/09 03:23:03;;;;;;;0.20;0.20;;;;;;;;;;6203785;23;20042;-77
2023/03/09 03:26:03;;;;;;;0.20;0.20;;;;;;;;;;6204509;23;20231;-77
2023/03/09 03:28:48;;;;;;;0.20;0.20;;;;;;;;;;6205319;23;20016;-77
2023/03/09 03:31:42;;;;;;;0.20;0.20;;;;;;;;;;6203372;23;20095;-77
2023/03/09 03:34:28;;;;;;;0.20;0.20;;;;;;;;;;6203977;23;20503;-77
2023/03/09 03:37:14;;;;;;;0.10;0.10;;;;;;;;;;6203609;23;20548;-76
2023/03/09 03:40:02;;;;;;;0.10;0.10;;;;;;;;;;6203894;23;20023;-77
2023/03/09 03:42:49;;;;;;;0.10;0.10;;;;;;;;;;6203499;23;20052;-77
2023/03/09 03:45:36;;;;;;;0.17;0.17;;;;;;;;;;6204094;23;20016;-77
2023/03/09 03:48:22;;;;;;;0.20;0.20;;;;;;;;;;6202903;23;20024;-77
2023/03/09 03:51:08;;;;;;;0.15;0.15;;;;;;;;;;6203622;23;20088;-78
2023/03/09 03:53:54;;;;;;;0.20;0.20;;;;;;;;;;6203908;23;20313;-76
2023/03/09 03:56:40;;;;;;;0.20;0.20;;;;;;;;;;6205508;23;20023;-76
2023/03/09 03:59:31;;;;;;;0.10;0.10;;;;;;;;;;6203572;23;20018;-76
2023/03/09 04:02:17;;;;;;;0.20;0.20;;;;;;;;;;6182187;23;20016;-76
2023/03/09 04:05:04;;;;;;;0.20;0.20;;;;;;;;;;6202996;23;20528;-75
2023/03/09 04:07:51;;;;;;;0.20;0.20;;;;;;;;;;6204796;23;20277;-76
2023/03/09 04:10:38;;;;;;;0.20;0.20;;;;;;;;;;6203314;23;20427;-77
2023/03/09 04:13:24;;;;;;;0.10;0.10;;;;;;;;;;6202261;23;20099;-76
2023/03/09 04:16:11;;;;;;;0.10;0.10;;;;;;;;;;6224997;23;20074;-75
2023/03/09 04:18:58;;;;;;;0.20;0.20;;;;;;;;;;6202917;23;20024;-76
2023/03/09 04:21:45;;;;;;;0.10;0.10;;;;;;;;;;6203448;23;20022;-76
2023/03/09 04:24:33;;;;;;;0.20;0.20;;;;;;;;;;6183322;23;20413;-76
2023/03/09 04:27:19;;;;;;;0.20;0.20;;;;;;;;;;6202951;23;20020;-76
2023/03/09 04:30:10;;;;;;;0.20;0.20;;;;;;;;;;6203312;23;20012;-76
2023/03/09 04:32:56;;;;;;;0.10;0.10;;;;;;;;;;6226407;23;20012;-76
2023/03/09 04:35:43;;;;;;;0.10;0.10;;;;;;;;;;6203397;23;20435;-76
2023/03/09 04:38:34;;;;;;;0.10;0.10;;;;;;;;;;6204216;23;20085;-75
2023/03/09 04:41:21;;;;;;;0.20;0.20;;;;;;;;;;6203933;23;20078;-76
2023/03/09 04:44:15;;;;;;;0.10;0.10;;;;;;;;;;6203404;23;20397;-76
2023/03/09 04:47:02;;;;;;;0.20;0.20;;;;;;;;;;6203175;23;20122;-75
2023/03/09 04:49:50;;;;;;;0.20;0.20;;;;;;;;;;6205216;23;20568;-76
2023/03/09 04:52:36;;;;;;;0.20;0.20;;;;;;;;;;6203855;23;20444;-76
2023/03/09 04:55:22;;;;;;;0.20;0.20;;;;;;;;;;6225052;23;20016;-76
2023/03/09 04:58:08;;;;;;;0.20;0.20;;;;;;;;;;6202707;23;20099;-75
2023/03/09 05:00:55;;;;;;;0.20;0.20;;;;;;;;;;6202528;23;20470;-76
2023/03/09 05:03:43;;;;;;;0.20;0.20;;;;;;;;;;6225277;23;20016;-76
2023/03/09 05:06:30;;;;;;;0.10;0.10;;;;;;;;;;6186909;23;20016;-76
2023/03/09 05:09:16;;;;;;;0.10;0.10;;;;;;;;;;6204690;23;20446;-76
2023/03/09 05:12:04;;;;;;;0.17;0.17;;;;;;;;;;6205811;23;20092;-76
2023/03/09 05:14:54;;;;;;;0.10;0.10;;;;;;;;;;6209107;23;20098;-75
2023/03/09 05:17:40;;;;;;;0.20;0.20;;;;;;;;;;6206010;23;20016;-77
2023/03/09 05:20:26;;;;;;;0.10;0.10;;;;;;;;;;6186103;23;20441;-77
2023/03/09 05:23:18;;;;;;;0.10;0.10;;;;;;;;;;6205245;23;20016;-77
2023/03/09 05:26:07;;;;;;;0.10;0.10;;;;;;;;;;6204771;23;20016;-78
2023/03/09 05:28:54;;;;;;;0.17;0.17;;;;;;;;;;6186699;23;20097;-78
2023/03/09 05:31:40;;;;;;;0.10;0.10;;;;;;;;;;6228253;23;20752;-77
2023/03/09 05:34:26;;;;;;;0.10;0.10;;;;;;;;;;6184178;23;20043;-75
2023/03/09 05:37:12;;;;;;;0.20;0.20;;;;;;;;;;6205828;23;20016;-76
2023/03/09 05:39:58;;;;;;;0.10;0.10;;;;;;;;;;6230617;23;20022;-76
2023/03/09 05:42:43;;;;;;;0.20;0.20;;;;;;;;;;6208098;23;20019;-76
2023/03/09 05:45:29;;;;;;;0.10;0.10;;;;;;;;;;6208373;23;20020;-76
2023/03/09 05:48:15;;;;;;;0.20;0.20;;;;;;;;;;6208560;23;20019;-76
2023/03/09 05:51:01;;;;;;;0.20;0.20;;;;;;;;;;6228966;23;20043;-78
2023/03/09 05:53:47;;;;;;;0.20;0.20;;;;;;;;;;6207327;23;20449;-75
2023/03/09 05:56:33;;;;;;;0.10;0.10;;;;;;;;;;6206985;23;20016;-75
2023/03/09 05:59:22;;;;;;;0.20;0.20;;;;;;;;;;6208875;23;20089;-75
2023/03/09 06:02:09;;;;;;;0.20;0.20;;;;;;;;;;6208330;23;20035;-75
2023/03/09 06:04:58;;;;;;;0.10;0.10;;;;;;;;;;6207513;23;20016;-75
2023/03/09 06:07:45;;;;;;;0.10;0.10;;;;;;;;;;6229642;23;20306;-75
2023/03/09 06:10:31;;;;;;;0.20;0.20;;;;;;;;;;6206763;23;20131;-76
2023/03/09 06:13:20;;;;;;;0.20;0.20;;;;;;;;;;6207430;23;20023;-75
2023/03/09 06:16:07;;;;;;;0.20;0.20;;;;;;;;;;6207221;23;20023;-75
2023/03/09 06:18:56;;;;;;;0.17;0.17;;;;;;;;;;6230646;23;20024;-75
2023/03/09 06:21:43;;;;;;;0.20;0.20;;;;;;;;;;6208117;23;20039;-75
2023/03/09 06:24:28;;;;;;;0.20;0.20;;;;;;;;;;6207253;23;20474;-75
2023/03/09 06:27:15;;;;;;;0.10;0.10;;;;;;;;;;6206972;23;20008;-75
2023/03/09 06:30:01;;;;;;;0.20;0.20;;;;;;;;;;6208245;23;20047;-76
2023/03/09 06:32:47;;;;;;;0.10;0.10;;;;;;;;;;6207320;23;20012;-76
2023/03/09 06:35:33;;;;;;;0.13;0.13;;;;;;;;;;6228547;23;20370;-76
2023/03/09 06:38:22;;;;;;;0.15;0.15;;;;;;;;;;6206341;23;20026;-76
2023/03/09 06:41:09;;;;;;;0.10;0.10;;;;;;;;;;6207619;23;20474;-76
2023/03/09 06:43:55;;;;;;;0.20;0.20;;;;;;;;;;6188977;23;20012;-76
2023/03/09 06:46:43;;;;;;;0.10;0.10;;;;;;;;;;6207417;23;20016;-76
2023/03/09 06:49:29;;;;;;;0.17;0.17;;;;;;;;;;6207881;23;20031;-76
2023/03/09 06:52:18;;;;;;;0.20;0.20;;;;;;;;;;6196929;23;20020;-76
2023/03/09 06:55:05;;;;;;;0.20;0.20;;;;;;;;;;6176566;23;20107;-76
2023/03/09 06:57:51;;;;;;;0.10;0.10;;;;;;;;;;6178883;23;20024;-76
2023/03/09 07:00:40;;;;;;;0.20;0.20;;;;;;;;;;6191706;23;20111;-76
2023/03/09 07:03:26;;;;;;;0.10;0.10;;;;;;;;;;6166976;23;20009;-76
2023/03/09 07:06:12;;;;;;;0.10;0.10;;;;;;;;;;6169189;23;20017;-76
2023/03/09 07:08:58;;;;;;;0.10;0.10;;;;;;;;;;6168794;23;20052;-76
2023/03/09 07:11:44;;;;;;;0.20;0.20;;;;;;;;;;6168302;23;20024;-76
2023/03/09 07:14:30;;;;;;;0.20;0.20;;;;;;;;;;6167999;23;20024;-77
2023/03/09 07:17:15;;;;;;;0.20;0.20;;;;;;;;;;6168849;23;20715;-76
2023/03/09 07:20:01;;;;;;;0.20;0.20;;;;;;;;;;6169726;23;20444;-77
2023/03/09 07:22:47;;;;;;;0.10;0.10;;;;;;;;;;6168874;23;20043;-76
2023/03/09 07:25:34;;;;;;;0.10;0.10;;;;;;;;;;6169162;23;20013;-76
2023/03/09 07:28:19;;;;;;;0.10;0.10;;;;;;;;;;6170582;23;20017;-77
2023/03/09 07:31:09;;;;;;;0.10;0.10;;;;;;;;;;6179714;23;20023;-76
2023/03/09 07:33:56;;;;;;;0.20;0.20;;;;;;;;;;6197238;23;20071;-76
2023/03/09 07:36:41;;;;;;;0.10;0.10;;;;;;;;;;6198677;23;20064;-76
2023/03/09 07:39:27;;;;;;;0.20;0.20;;;;;;;;;;6198662;23;20052;-77
2023/03/09 07:42:13;;;;;;;0.20;0.20;;;;;;;;;;6198650;23;20052;-76
2023/03/09 07:45:11;;;;;;;0.20;0.20;;;;;;;;;;6197657;23;20083;-76
2023/03/09 07:47:57;;;;;;;0.20;0.20;;;;;;;;;;6198691;23;20381;-77
2023/03/09 07:50:43;;;;;;;0.13;0.13;;;;;;;;;;6196777;23;20026;-77
2023/03/09 07:53:30;;;;;;;0.20;0.20;;;;;;;;;;6199473;23;20031;-77
2023/03/09 07:56:16;;;;;;;0.20;0.20;;;;;;;;;;6199780;23;20092;-76
2023/03/09 07:59:04;;;;;;;0.20;0.20;;;;;;;;;;6198684;23;20028;-77
2023/03/09 08:01:50;;;;;;;0.10;0.10;;;;;;;;;;6177905;23;20027;-76
2023/03/09 08:04:35;;;;;;;0.10;0.10;;;;;;;;;;6169528;23;20505;-76
2023/03/09 08:07:21;;;;;;;0.10;0.10;;;;;;;;;;6166893;23;20012;-76
2023/03/09 08:10:07;;;;;;;0.15;0.15;;;;;;;;;;6167123;23;20017;-77
2023/03/09 08:12:53;;;;;;;0.20;0.20;;;;;;;;;;6168789;23;20111;-76
2023/03/09 08:15:39;;;;;;;0.20;0.20;;;;;;;;;;6169520;23;20047;-76
2023/03/09 08:18:24;;;;;;;0.10;0.10;;;;;;;;;;6167360;23;20021;-76
2023/03/09 08:21:13;;;;;;;0.10;0.10;;;;;;;;;;6169513;23;20422;-77
2023/03/09 08:23:59;;;;;;;0.10;0.10;;;;;;;;;;6168278;23;20005;-77
2023/03/09 08:26:45;;;;;;;0.10;0.10;;;;;;;;;;6167762;23;20059;-76
2023/03/09 08:29:30;;;;;;;0.10;0.10;;;;;;;;;;6168276;23;20020;-77
2023/03/09 08:32:16;;;;;;;0.10;0.10;;;;;;;;;;6194925;23;20295;-77
2023/03/09 08:35:02;;;;;;;0.20;0.20;;;;;;;;;;6196483;23;20012;-76
2023/03/09 08:37:48;;;;;;;0.20;0.20;;;;;;;;;;6196395;23;20334;-76
2023/03/09 08:40:34;;;;;;;0.20;0.20;;;;;;;;;;6196353;23;20464;-77
2023/03/09 08:43:19;;;;;;;0.10;0.10;;;;;;;;;;6197525;23;20099;-76
2023/03/09 08:46:05;;;;;;;0.10;0.10;;;;;;;;;;6197612;23;20012;-76
2023/03/09 08:48:51;;;;;;;0.10;0.10;;;;;;;;;;6198079;23;20027;-77
2023/03/09 08:51:36;;;;;;;0.17;0.17;;;;;;;;;;6197039;23;20023;-76
2023/03/09 08:54:22;;;;;;;0.20;0.20;;;;;;;;;;6197048;23;20135;-76
2023/03/09 08:57:08;;;;;;;0.20;0.20;;;;;;;;;;6195958;23;20020;-77
2023/03/09 08:59:54;;;;;;;0.20;0.20;;;;;;;;;;6175196;23;20024;-77
2023/03/09 09:02:40;;;;;;;0.20;0.20;;;;;;;;;;6196979;23;20403;-77
2023/03/09 09:05:26;;;;;;;0.20;0.20;;;;;;;;;;6198339;23;20009;-77
2023/03/09 09:08:12;;;;;;;0.20;0.20;;;;;;;;;;6197881;23;20016;-76
2023/03/09 09:10:58;;;;;;;0.20;0.20;;;;;;;;;;6196221;23;20107;-76
2023/03/09 09:13:43;;;;;;;0.10;0.10;;;;;;;;;;6198133;23;20683;-76
2023/03/09 09:16:29;;;;;;;0.20;0.20;;;;;;;;;;6198353;23;20017;-77
2023/03/09 09:20:01;;;;;;;0.10;0.10;;;;;;;;;;6198201;23;20453;-77
2023/03/09 09:22:24;;;;;;;0.10;0.10;;;;;;;;;;6199138;23;20461;-77
2023/03/09 09:25:10;;;;;;;0.10;0.10;;;;;;;;;;6196141;23;20078;-77
2023/03/09 09:27:56;;;;;;;0.20;0.20;;;;;;;;;;6175683;23;20032;-77
2023/03/09 09:30:43;;;;;;;0.10;0.10;;;;;;;;;;6197247;23;20179;-77
2023/03/09 09:33:29;;;;;;;0.10;0.10;;;;;;;;;;6174013;23;20008;-77
2023/03/09 09:36:16;;;;;;;0.20;0.20;;;;;;;;;;6196299;23;20705;-77
2023/03/09 09:39:04;;;;;;;0.20;0.20;;;;;;;;;;6197110;23;20016;-77
2023/03/09 09:41:52;;;;;;;0.20;0.20;;;;;;;;;;6198367;23;20036;-77
2023/03/09 09:44:42;;;;;;;0.10;0.10;;;;;;;;;;6197640;23;20016;-77
2023/03/09 09:47:30;;;;;;;0.10;0.10;;;;;;;;;;6175445;23;20354;-77
2023/03/09 09:50:16;;;;;;;0.10;0.10;;;;;;;;;;6196708;23;20023;-77
2023/03/09 09:53:07;;;;;;;0.10;0.10;;;;;;;;;;6195901;23;20040;-77
2023/03/09 09:55:53;;;;;;;0.10;0.10;;;;;;;;;;6175493;23;20489;-77
2023/03/09 09:58:59;;;;;;;0.10;0.10;;;;;;;;;;6195762;23;20023;-77
2023/03/09 10:01:52;;;;;;;0.20;0.20;;;;;;;;;;6175267;23;20425;-77
2023/03/09 10:04:43;;;;;;;0.10;0.10;;;;;;;;;;6156795;23;20127;-77
2023/03/09 10:07:30;;;;;;;0.20;0.20;;;;;;;;;;6197982;23;20020;-77
2023/03/09 10:10:21;;;;;;;0.10;0.10;;;;;;;;;;6196081;23;20451;-76
2023/03/09 10:13:13;;;;;;;0.20;0.20;;;;;;;;;;6175046;23;20016;-77
2023/03/09 10:16:01;;;;;;;0.20;0.20;;;;;;;;;;6197598;23;20008;-78
2023/03/09 10:18:50;;;;;;;0.10;0.10;;;;;;;;;;6197565;23;20021;-77
2023/03/09 10:22:05;;;;;;;0.13;0.13;;;;;;;;;;6197770;23;20023;-77
2023/03/09 10:24:51;;;;;;;0.10;0.10;;;;;;;;;;6187246;23;20016;-77
2023/03/09 10:27:40;;;;;;;0.20;0.20;;;;;;;;;;6175894;23;20039;-77
2023/03/09 10:30:55;;;;;;;0.10;0.10;;;;;;;;;;6176524;23;20008;-77
2023/03/09 10:33:43;;;;;;;0.10;0.10;;;;;;;;;;6189880;23;20433;-77
2023/03/09 10:36:30;;;;;;;0.17;0.17;;;;;;;;;;6197871;23;20474;-77
2023/03/09 10:39:16;;;;;;;0.10;0.10;;;;;;;;;;6198081;23;20537;-77
2023/03/09 10:42:14;;;;;;;0.15;0.15;;;;;;;;;;6197673;23;20039;-77
2023/03/09 10:45:03;;;;;;;0.10;0.10;;;;;;;;;;6197678;23;20015;-77
2023/03/09 10:47:49;;;;;;;0.20;0.20;;;;;;;;;;6199182;23;20052;-77
2023/03/09 10:50:35;;;;;;;0.20;0.20;;;;;;;;;;6196840;23;20019;-77
2023/03/09 10:53:51;;;;;;;0.15;0.15;;;;;;;;;;6197131;23;20106;-78
2023/03/09 10:56:41;;;;;;;0.10;0.10;;;;;;;;;;6198880;23;20063;-77
2023/03/09 10:59:28;;;;;;;0.10;0.10;;;;;;;;;;6199427;23;20020;-77
2023/03/09 11:02:26;;;;;;;0.20;0.20;;;;;;;;;;6177633;23;20017;-78
2023/03/09 11:05:18;;;;;;;0.20;0.20;;;;;;;;;;6177721;23;20013;-77
2023/03/09 11:08:07;;;;;;;0.20;0.20;;;;;;;;;;6198078;23;20116;-77
2023/03/09 11:11:03;;;;;;;0.20;0.20;;;;;;;;;;6199184;23;20012;-77
2023/03/09 11:13:49;;;;;;;0.10;0.10;;;;;;;;;;6198596;23;20043;-77
2023/03/09 11:16:36;;;;;;;0.20;0.20;;;;;;;;;;6198714;23;20155;-77
2023/03/09 11:19:22;;;;;;;0.10;0.10;;;;;;;;;;6199438;23;20017;-78
2023/03/09 11:22:11;;;;;;;0.10;0.10;;;;;;;;;;6198281;23;20016;-77
2023/03/09 11:24:57;;;;;;;0.20;0.20;;;;;;;;;;6197963;23;20021;-77
2023/03/09 11:27:49;;;;;;;0.10;0.10;;;;;;;;;;6199334;23;20024;-78
2023/03/09 11:30:35;;;;;;;0.20;0.20;;;;;;;;;;6175000;23;20107;-77
2023/03/09 11:33:21;;;;;;;0.10;0.10;;;;;;;;;;6197393;23;20009;-77
2023/03/09 11:36:10;;;;;;;0.15;0.15;;;;;;;;;;6196485;23;20031;-78
2023/03/09 11:38:56;;;;;;;0.10;0.10;;;;;;;;;;6197251;23;20016;-77
2023/03/09 11:41:43;;;;;;;0.15;0.15;;;;;;;;;;6198703;23;20012;-77
2023/03/09 11:44:36;;;;;;;0.10;0.10;;;;;;;;;;6198852;23;20521;-77
2023/03/09 11:47:29;;;;;;;0.10;0.10;;;;;;;;;;6176412;23;20012;-78
2023/03/09 11:50:18;;;;;;;0.20;0.20;;;;;;;;;;6175046;23;20523;-78
2023/03/09 11:53:05;;;;;;;0.10;0.10;;;;;;;;;;6198526;23;20269;-78
2023/03/09 11:55:53;;;;;;;0.10;0.10;;;;;;;;;;6193946;23;20442;-78
2023/03/09 11:58:40;;;;;;;0.10;0.10;;;;;;;;;;6178351;23;20023;-78
2023/03/09 12:01:33;;;;;;;0.10;0.10;;;;;;;;;;6197386;23;20008;-78
2023/03/09 12:04:19;;;;;;;0.10;0.10;;;;;;;;;;6198532;23;20017;-78
2023/03/09 12:07:12;;;;;;;0.10;0.10;;;;;;;;;;6199291;23;20091;-78
2023/03/09 12:10:03;;;;;;;0.10;0.10;;;;;;;;;;6198549;23;20056;-78
2023/03/09 12:12:51;;;;;;;;;;;;;;;;;;6200007;23;20035;-78
2023/03/09 12:15:56;;;;;;;0.10;0.10;;;;;;;;;;6199040;23;19975;-78
2023/03/09 12:18:45;;;;;;;0.10;0.10;;;;;;;;;;6198475;23;20012;-78
2023/03/09 12:21:36;;;;;;;0.10;0.10;;;;;;;;;;6177976;23;20078;-78
2023/03/09 12:24:26;;;;;;;0.10;0.10;;;;;;;;;;6195795;23;20012;-78
2023/03/09 12:27:25;;;;;;;0.20;0.20;;;;;;;;;;6198206;23;20009;-78
2023/03/09 12:30:30;;;;;;;0.10;0.10;;;;;;;;;;6197517;23;20020;-78
2023/03/09 12:33:37;;;;;;;0.13;0.13;;;;;;;;;;6195826;23;20005;-78
2023/03/09 12:36:25;;;;;;;0.10;0.10;;;;;;;;;;6197876;23;20020;-78
2023/03/09 12:39:28;;;;;;;0.10;0.10;;;;;;;;;;6176184;23;20044;-78
2023/03/09 12:42:16;;;;;;;0.10;0.10;;;;;;;;;;6175209;23;20104;-78
2023/03/09 12:45:21;;;;;;;0.13;0.13;;;;;;;;;;6198656;23;20142;-78
2023/03/09 12:48:20;;;;;;;0.20;0.20;;;;;;;;;;6196989;23;20031;-78
2023/03/09 12:51:11;;;;;;;0.10;0.10;;;;;;;;;;6172889;23;20009;-78
2023/03/09 12:54:17;;;;;;;0.10;0.10;;;;;;;;;;6175034;23;20076;-78
2023/03/09 12:57:17;;;;;;;0.10;0.10;;;;;;;;;;6198658;23;20012;-78
2023/03/09 13:00:22;;;;;;;0.10;0.10;;;;;;;;;;6176067;23;20044;-79
2023/03/09 13:03:16;;;;;;;0.15;0.15;;;;;;;;;;6176535;23;20023;-79
2023/03/09 13:06:03;;;;;;;0.10;0.10;;;;;;;;;;6198569;23;20079;-78
2023/03/09 13:09:12;;;;;;;0.10;0.10;;;;;;;;;;6175242;23;20016;-77
2023/03/09 13:11:57;;;;;;;0.10;0.10;;;;;;;;;;6199131;23;20012;-76
2023/03/09 13:14:43;;;;;;;0.20;0.20;;;;;;;;;;6198887;23;20043;-76
2023/03/09 13:17:37;;;;;;;0.10;0.10;;;;;;;;;;6197343;23;20008;-76
2023/03/09 13:20:36;;;;;;;0.20;0.20;;;;;;;;;;6199107;23;20040;-76
2023/03/09 13:23:22;;;;;;;0.10;0.10;;;;;;;;;;6196863;23;20036;-77
2023/03/09 13:26:13;;;;;;;0.10;0.10;;;;;;;;;;6197316;23;20090;-77
2023/03/09 13:29:07;;;;;;;0.20;0.20;;;;;;;;;;6177277;23;20012;-77
2023/03/09 13:31:52;;;;;;;;;;;;;;;;;;6198162;23;20012;-77
2023/03/09 13:34:38;;;;;;;0.20;0.20;;;;;;;;;;6199257;23;20342;-77
2023/03/09 13:37:26;;;;;;;0.15;0.15;;;;;;;;;;6196098;23;20649;-78
2023/03/09 13:40:26;;;;;;;0.10;0.10;;;;;;;;;;6198161;23;20091;-77
2023/03/09 13:43:16;;;;;;;0.10;0.10;;;;;;;;;;6177037;23;20013;-77
2023/03/09 13:46:02;;;;;;;0.20;0.20;;;;;;;;;;6197674;23;20016;-78
2023/03/09 13:48:49;;;;;;;0.10;0.10;;;;;;;;;;6196894;23;20071;-78
2023/03/09 13:51:41;;;;;;;0.10;0.10;;;;;;;;;;6196116;23;20589;-78
2023/03/09 13:54:31;;;;;;;0.10;0.10;;;;;;;;;;6197808;23;20338;-78
2023/03/09 13:57:17;;;;;;;0.13;0.13;;;;;;;;;;6197439;23;20088;-78
2023/03/09 14:00:17;;;;;;;0.10;0.10;;;;;;;;;;6200346;23;20044;-78
2023/03/09 14:03:02;;;;;;;0.10;0.10;;;;;;;;;;6177537;23;20063;-78
2023/03/09 14:06:03;;;;;;;0.10;0.10;;;;;;;;;;6199710;23;20346;-78
2023/03/09 14:08:52;;;;;;;0.10;0.10;;;;;;;;;;6177776;23;20018;-78
2023/03/09 14:11:39;;;;;;;0.10;0.10;;;;;;;;;;6199790;23;20103;-78
2023/03/09 14:14:25;;;;;;;0.10;0.10;;;;;;;;;;6199593;23;20015;-78
2023/03/09 14:17:16;;;;;;;0.10;0.10;;;;;;;;;;6177461;23;20366;-78
2023/03/09 14:20:03;;;;;;;0.20;0.20;;;;;;;;;;6178055;23;20005;-78
2023/03/09 14:22:52;;;;;;;0.10;0.10;;;;;;;;;;6199272;23;20030;-78
2023/03/09 14:25:39;;;;;;;0.10;0.10;;;;;;;;;;6200341;23;20012;-78
2023/03/09 14:28:24;;;;;;;0.10;0.10;;;;;;;;;;6199054;23;20337;-78
2023/03/09 14:31:18;;;;;;;0.10;0.10;;;;;;;;;;6197880;23;20016;-77
2023/03/09 14:34:04;;;;;;;0.20;0.20;;;;;;;;;;6175597;23;20021;-77
2023/03/09 14:36:55;;;;;;;0.15;0.15;;;;;;;;;;6198475;23;20008;-77
2023/03/09 14:39:42;;;;;;;0.20;0.20;;;;;;;;;;6177032;23;20433;-77
2023/03/09 14:42:30;;;;;;;0.20;0.20;;;;;;;;;;6197848;23;20071;-78
2023/03/09 14:45:21;;;;;;;0.10;0.10;;;;;;;;;;6197972;23;20012;-77
2023/03/09 14:48:07;;;;;;;0.20;0.20;;;;;;;;;;6198500;23;20066;-77
2023/03/09 14:50:52;;;;;;;0.10;0.10;;;;;;;;;;6197124;23;20239;-77
2023/03/09 14:53:48;;;;;;;0.10;0.10;;;;;;;;;;6198541;23;20076;-77
2023/03/09 14:56:34;;;;;;;0.10;0.10;;;;;;;;;;6200009;23;20412;-77
2023/03/09 14:59:21;;;;;;;0.10;0.10;;;;;;;;;;6198894;23;20082;-77
2023/03/09 15:02:10;;;;;;;0.20;0.20;;;;;;;;;;6198274;23;20009;-79
2023/03/09 15:04:56;;;;;;;0.10;0.10;;;;;;;;;;6198539;23;20403;-77
2023/03/09 15:07:41;;;;;;;0.10;0.10;;;;;;;;;;6198716;23;20013;-77
2023/03/09 15:10:28;;;;;;;0.10;0.10;;;;;;;;;;6196885;23;20702;-77
2023/03/09 15:13:13;;;;;;;0.10;0.10;;;;;;;;;;6177319;23;20385;-77
2023/03/09 15:15:59;;;;;;;0.10;0.10;;;;;;;;;;6199789;23;20087;-77
2023/03/09 15:18:45;;;;;;;0.10;0.10;;;;;;;;;;6178153;23;20304;-78
2023/03/09 15:21:31;;;;;;;0.10;0.10;;;;;;;;;;6198310;23;20013;-78
2023/03/09 15:24:17;;;;;;;0.10;0.10;;;;;;;;;;6197937;23;20012;-78
2023/03/09 15:27:03;;;;;;;0.10;0.10;;;;;;;;;;6200088;23;20004;-77
2023/03/09 15:29:48;;;;;;;0.20;0.20;;;;;;;;;;6176452;23;20112;-77
2023/03/09 15:32:34;;;;;;;0.10;0.10;;;;;;;;;;6199601;23;20012;-77
2023/03/09 15:35:20;;;;;;;0.10;0.10;;;;;;;;;;6175471;23;20017;-77
2023/03/09 15:38:06;;;;;;;0.10;0.10;;;;;;;;;;6197635;23;20238;-77
2023/03/09 15:40:51;;;;;;;0.10;0.10;;;;;;;;;;6175006;23;20039;-77
2023/03/09 15:43:37;;;;;;;0.10;0.10;;;;;;;;;;6198755;23;20012;-77
2023/03/09 15:46:26;;;;;;;0.10;0.10;;;;;;;;;;6198169;23;20394;-77
2023/03/09 15:49:12;;;;;;;0.10;0.10;;;;;;;;;;6197886;23;20026;-77
2023/03/09 15:51:57;;;;;;;0.20;0.20;;;;;;;;;;6178393;23;20024;-77
2023/03/09 15:54:43;;;;;;;0.10;0.10;;;;;;;;;;6198730;23;20020;-77
2023/03/09 15:57:29;;;;;;;0.17;0.17;;;;;;;;;;6196479;23;20411;-77
2023/03/09 16:00:15;;;;;;;0.13;0.13;;;;;;;;;;6197331;23;20485;-78
2023/03/09 16:03:01;;;;;;;0.10;0.10;;;;;;;;;;6167960;23;20297;-77
2023/03/09 16:05:46;;;;;;;0.20;0.20;;;;;;;;;;6168208;23;20075;-77
2023/03/09 16:08:32;;;;;;;0.10;0.10;;;;;;;;;;6168004;23;20047;-78
2023/03/09 16:11:20;;;;;;;0.10;0.10;;;;;;;;;;6167956;23;20013;-77
2023/03/09 16:14:06;;;;;;;0.13;0.13;;;;;;;;;;6169469;23;20017;-78
2023/03/09 16:16:52;;;;;;;0.10;0.10;;;;;;;;;;6169423;23;20036;-78
2023/03/09 16:19:38;;;;;;;0.20;0.20;;;;;;;;;;6169418;23;20017;-78
2023/03/09 16:22:27;;;;;;;0.10;0.10;;;;;;;;;;6168468;23;20294;-77
2023/03/09 16:25:13;;;;;;;0.10;0.10;;;;;;;;;;6166303;23;20693;-77
2023/03/09 16:27:59;;;;;;;0.17;0.17;;;;;;;;;;6168213;23;20056;-77
2023/03/09 16:30:45;;;;;;;0.10;0.10;;;;;;;;;;6176559;23;20047;-77
2023/03/09 16:33:32;;;;;;;0.10;0.10;;;;;;;;;;6197440;23;20019;-77
2023/03/09 16:36:18;;;;;;;0.10;0.10;;;;;;;;;;6197346;23;20036;-77
2023/03/09 16:39:05;;;;;;;0.10;0.10;;;;;;;;;;6196085;23;20016;-78
2023/03/09 16:41:51;;;;;;;0.20;0.20;;;;;;;;;;6198626;23;20568;-77
2023/03/09 16:44:37;;;;;;;0.10;0.10;;;;;;;;;;6196455;23;20013;-77
2023/03/09 16:47:23;;;;;;;0.10;0.10;;;;;;;;;;6196439;23;20019;-77